sensor_id;sensor_type;location;lat;lon;timestamp;temperature;humidity
68257;DHT22;55069;51.568;4.656;2023-11-21T00:00:17;5.42;97.96
68257;DHT22;55069;51.568;4.656;2023-11-21T00:02:44;5.43;97.93
68257;DHT22;55069;51.568;4.656;2023-11-21T00:05:12;5.44;97.95
68257;DHT22;55069;51.568;4.656;2023-11-21T00:07:40;5.46;97.99
68257;DHT22;55069;51.568;4.656;2023-11-21T00:10:06;5.44;98.01
68257;DHT22;55069;51.568;4.656;2023-11-21T00:12:32;5.47;98.14
68257;DHT22;55069;51.568;4.656;2023-11-21T00:14:58;5.46;98.18
68257;DHT22;55069;51.568;4.656;2023-11-21T00:17:24;5.50;98.23
68257;DHT22;55069;51.568;4.656;2023-11-21T00:19:50;5.51;98.29
68257;DHT22;55069;51.568;4.656;2023-11-21T00:22:17;5.53;98.20
68257;DHT22;55069;51.568;4.656;2023-11-21T00:24:43;5.50;98.16
68257;DHT22;55069;51.568;4.656;2023-11-21T00:27:10;5.48;98.19
68257;DHT22;55069;51.568;4.656;2023-11-21T00:29:35;5.50;98.19
68257;DHT22;55069;51.568;4.656;2023-11-21T00:32:01;5.48;98.21
68257;DHT22;55069;51.568;4.656;2023-11-21T00:34:26;5.46;98.22
68257;DHT22;55069;51.568;4.656;2023-11-21T00:36:52;5.46;98.24
68257;DHT22;55069;51.568;4.656;2023-11-21T00:39:17;5.43;98.22
68257;DHT22;55069;51.568;4.656;2023-11-21T00:41:43;5.39;98.15
68257;DHT22;55069;51.568;4.656;2023-11-21T00:44:10;5.36;98.12
68257;DHT22;55069;51.568;4.656;2023-11-21T00:46:36;5.34;98.09
68257;DHT22;55069;51.568;4.656;2023-11-21T00:49:02;5.32;98.07
68257;DHT22;55069;51.568;4.656;2023-11-21T00:51:30;5.27;98.00
68257;DHT22;55069;51.568;4.656;2023-11-21T00:53:55;5.26;98.06
68257;DHT22;55069;51.568;4.656;2023-11-21T00:56:21;5.29;98.07
68257;DHT22;55069;51.568;4.656;2023-11-21T00:58:47;5.32;98.22
68257;DHT22;55069;51.568;4.656;2023-11-21T01:01:15;5.43;98.35
68257;DHT22;55069;51.568;4.656;2023-11-21T01:03:41;5.55;98.44
68257;DHT22;55069;51.568;4.656;2023-11-21T01:06:07;5.60;98.53
68257;DHT22;55069;51.568;4.656;2023-11-21T01:08:34;5.68;98.49
68257;DHT22;55069;51.568;4.656;2023-11-21T01:10:59;5.73;98.44
68257;DHT22;55069;51.568;4.656;2023-11-21T01:13:26;5.77;98.42
68257;DHT22;55069;51.568;4.656;2023-11-21T01:15:55;5.82;98.46
68257;DHT22;55069;51.568;4.656;2023-11-21T01:18:21;5.92;98.50
68257;DHT22;55069;51.568;4.656;2023-11-21T01:20:47;6.01;98.35
68257;DHT22;55069;51.568;4.656;2023-11-21T01:23:13;6.05;98.29
68257;DHT22;55069;51.568;4.656;2023-11-21T01:25:39;6.05;98.36
68257;DHT22;55069;51.568;4.656;2023-11-21T01:28:04;6.12;98.40
68257;DHT22;55069;51.568;4.656;2023-11-21T01:30:30;6.22;98.39
68257;DHT22;55069;51.568;4.656;2023-11-21T01:32:58;6.28;98.23
68257;DHT22;55069;51.568;4.656;2023-11-21T01:35:23;6.32;98.31
68257;DHT22;55069;51.568;4.656;2023-11-21T01:37:48;6.36;98.29
68257;DHT22;55069;51.568;4.656;2023-11-21T01:40:14;6.41;98.29
68257;DHT22;55069;51.568;4.656;2023-11-21T01:42:41;6.46;98.27
68257;DHT22;55069;51.568;4.656;2023-11-21T01:45:09;6.44;98.29
68257;DHT22;55069;51.568;4.656;2023-11-21T01:47:36;6.51;98.36
68257;DHT22;55069;51.568;4.656;2023-11-21T01:50:02;6.56;98.34
68257;DHT22;55069;51.568;4.656;2023-11-21T01:52:30;6.60;98.41
68257;DHT22;55069;51.568;4.656;2023-11-21T01:54:57;6.63;98.44
68257;DHT22;55069;51.568;4.656;2023-11-21T01:57:23;6.70;98.44
68257;DHT22;55069;51.568;4.656;2023-11-21T01:59:49;6.70;98.49
68257;DHT22;55069;51.568;4.656;2023-11-21T02:02:16;6.74;98.55
68257;DHT22;55069;51.568;4.656;2023-11-21T02:04:42;6.77;98.56
68257;DHT22;55069;51.568;4.656;2023-11-21T02:07:07;6.83;98.62
68257;DHT22;55069;51.568;4.656;2023-11-21T02:09:33;6.91;98.67
68257;DHT22;55069;51.568;4.656;2023-11-21T02:12:00;6.94;98.66
68257;DHT22;55069;51.568;4.656;2023-11-21T02:14:26;6.97;98.72
68257;DHT22;55069;51.568;4.656;2023-11-21T02:16:54;6.98;98.79
68257;DHT22;55069;51.568;4.656;2023-11-21T02:19:21;7.04;98.78
68257;DHT22;55069;51.568;4.656;2023-11-21T02:21:52;7.04;98.84
68257;DHT22;55069;51.568;4.656;2023-11-21T02:24:19;7.07;98.85
68257;DHT22;55069;51.568;4.656;2023-11-21T02:26:45;7.11;98.88
68257;DHT22;55069;51.568;4.656;2023-11-21T02:29:11;7.14;98.94
68257;DHT22;55069;51.568;4.656;2023-11-21T02:31:39;7.14;98.95
68257;DHT22;55069;51.568;4.656;2023-11-21T02:34:17;7.19;98.95
68257;DHT22;55069;51.568;4.656;2023-11-21T02:36:44;7.20;98.97
68257;DHT22;55069;51.568;4.656;2023-11-21T02:39:11;7.23;99.02
68257;DHT22;55069;51.568;4.656;2023-11-21T02:41:37;7.26;99.00
68257;DHT22;55069;51.568;4.656;2023-11-21T02:44:04;7.28;99.05
68257;DHT22;55069;51.568;4.656;2023-11-21T02:46:32;7.32;99.09
68257;DHT22;55069;51.568;4.656;2023-11-21T02:49:05;7.36;99.23
68257;DHT22;55069;51.568;4.656;2023-11-21T02:51:36;7.36;99.14
68257;DHT22;55069;51.568;4.656;2023-11-21T02:54:03;7.36;99.17
68257;DHT22;55069;51.568;4.656;2023-11-21T02:56:33;7.37;99.16
68257;DHT22;55069;51.568;4.656;2023-11-21T02:59:00;7.43;99.20
68257;DHT22;55069;51.568;4.656;2023-11-21T03:01:26;7.45;99.22
68257;DHT22;55069;51.568;4.656;2023-11-21T03:03:52;7.46;99.21
68257;DHT22;55069;51.568;4.656;2023-11-21T03:06:18;7.52;99.26
68257;DHT22;55069;51.568;4.656;2023-11-21T03:08:44;7.50;99.32
68257;DHT22;55069;51.568;4.656;2023-11-21T03:11:09;7.57;99.31
68257;DHT22;55069;51.568;4.656;2023-11-21T03:13:35;7.56;99.26
68257;DHT22;55069;51.568;4.656;2023-11-21T03:16:00;7.60;99.31
68257;DHT22;55069;51.568;4.656;2023-11-21T03:18:26;7.63;99.42
68257;DHT22;55069;51.568;4.656;2023-11-21T03:20:54;7.64;99.33
68257;DHT22;55069;51.568;4.656;2023-11-21T03:23:20;7.69;99.42
68257;DHT22;55069;51.568;4.656;2023-11-21T03:25:45;7.74;99.49
68257;DHT22;55069;51.568;4.656;2023-11-21T03:28:11;7.77;99.47
68257;DHT22;55069;51.568;4.656;2023-11-21T03:30:36;7.81;99.51
68257;DHT22;55069;51.568;4.656;2023-11-21T03:33:03;7.84;99.49
68257;DHT22;55069;51.568;4.656;2023-11-21T03:35:28;7.88;99.57
68257;DHT22;55069;51.568;4.656;2023-11-21T03:37:54;7.91;99.63
68257;DHT22;55069;51.568;4.656;2023-11-21T03:40:19;7.95;99.59
68257;DHT22;55069;51.568;4.656;2023-11-21T03:42:46;7.97;99.56
68257;DHT22;55069;51.568;4.656;2023-11-21T03:45:12;7.91;99.58
68257;DHT22;55069;51.568;4.656;2023-11-21T03:47:38;7.95;99.55
68257;DHT22;55069;51.568;4.656;2023-11-21T03:50:04;7.94;99.60
68257;DHT22;55069;51.568;4.656;2023-11-21T03:52:30;7.88;99.55
68257;DHT22;55069;51.568;4.656;2023-11-21T03:54:56;7.94;99.69
68257;DHT22;55069;51.568;4.656;2023-11-21T03:57:21;7.99;99.84
68257;DHT22;55069;51.568;4.656;2023-11-21T03:59:47;8.06;99.99
68257;DHT22;55069;51.568;4.656;2023-11-21T04:02:12;8.09;99.99
68257;DHT22;55069;51.568;4.656;2023-11-21T04:04:38;8.12;99.99
68257;DHT22;55069;51.568;4.656;2023-11-21T04:07:04;8.15;99.99
68257;DHT22;55069;51.568;4.656;2023-11-21T04:09:30;8.18;99.99
68257;DHT22;55069;51.568;4.656;2023-11-21T04:11:56;8.21;99.99
68257;DHT22;55069;51.568;4.656;2023-11-21T04:14:22;8.25;99.99
68257;DHT22;55069;51.568;4.656;2023-11-21T04:16:47;8.21;99.99
68257;DHT22;55069;51.568;4.656;2023-11-21T04:19:14;8.22;99.99
68257;DHT22;55069;51.568;4.656;2023-11-21T04:21:42;8.24;99.99
68257;DHT22;55069;51.568;4.656;2023-11-21T04:24:08;8.26;99.99
68257;DHT22;55069;51.568;4.656;2023-11-21T04:26:34;8.26;99.99
68257;DHT22;55069;51.568;4.656;2023-11-21T04:28:59;8.28;99.99
68257;DHT22;55069;51.568;4.656;2023-11-21T04:31:25;8.32;99.99
68257;DHT22;55069;51.568;4.656;2023-11-21T04:33:51;8.31;99.99
68257;DHT22;55069;51.568;4.656;2023-11-21T04:36:16;8.26;99.99
68257;DHT22;55069;51.568;4.656;2023-11-21T04:38:42;8.28;99.99
68257;DHT22;55069;51.568;4.656;2023-11-21T04:41:08;8.28;99.99
68257;DHT22;55069;51.568;4.656;2023-11-21T04:43:33;8.31;99.99
68257;DHT22;55069;51.568;4.656;2023-11-21T04:45:59;8.28;99.99
68257;DHT22;55069;51.568;4.656;2023-11-21T04:48:25;8.28;99.99
68257;DHT22;55069;51.568;4.656;2023-11-21T04:50:50;8.31;99.99
68257;DHT22;55069;51.568;4.656;2023-11-21T04:53:17;8.29;99.99
68257;DHT22;55069;51.568;4.656;2023-11-21T04:55:43;8.32;99.99
68257;DHT22;55069;51.568;4.656;2023-11-21T04:58:09;8.35;99.99
68257;DHT22;55069;51.568;4.656;2023-11-21T05:00:36;8.33;99.99
68257;DHT22;55069;51.568;4.656;2023-11-21T05:03:02;8.32;99.99
68257;DHT22;55069;51.568;4.656;2023-11-21T05:05:29;8.35;99.99
68257;DHT22;55069;51.568;4.656;2023-11-21T05:07:55;8.35;99.99
68257;DHT22;55069;51.568;4.656;2023-11-21T05:10:20;8.31;99.99
68257;DHT22;55069;51.568;4.656;2023-11-21T05:12:48;8.32;99.99
68257;DHT22;55069;51.568;4.656;2023-11-21T05:15:15;8.33;99.99
68257;DHT22;55069;51.568;4.656;2023-11-21T05:17:41;8.33;99.99
68257;DHT22;55069;51.568;4.656;2023-11-21T05:20:08;8.32;99.99
68257;DHT22;55069;51.568;4.656;2023-11-21T05:22:35;8.32;99.99
68257;DHT22;55069;51.568;4.656;2023-11-21T05:25:02;8.33;99.99
68257;DHT22;55069;51.568;4.656;2023-11-21T05:27:29;8.33;99.99
68257;DHT22;55069;51.568;4.656;2023-11-21T05:29:56;8.33;99.99
68257;DHT22;55069;51.568;4.656;2023-11-21T05:32:24;8.31;99.99
68257;DHT22;55069;51.568;4.656;2023-11-21T05:34:49;8.36;99.99
68257;DHT22;55069;51.568;4.656;2023-11-21T05:37:15;8.38;99.99
68257;DHT22;55069;51.568;4.656;2023-11-21T05:39:40;8.39;99.99
68257;DHT22;55069;51.568;4.656;2023-11-21T05:42:06;8.43;99.99
68257;DHT22;55069;51.568;4.656;2023-11-21T05:44:31;8.46;99.99
68257;DHT22;55069;51.568;4.656;2023-11-21T05:46:57;8.48;99.99
68257;DHT22;55069;51.568;4.656;2023-11-21T05:49:24;8.53;99.99
68257;DHT22;55069;51.568;4.656;2023-11-21T05:51:53;8.54;99.99
68257;DHT22;55069;51.568;4.656;2023-11-21T05:54:19;8.59;99.99
68257;DHT22;55069;51.568;4.656;2023-11-21T05:56:45;8.63;99.99
68257;DHT22;55069;51.568;4.656;2023-11-21T05:59:10;8.63;99.99
68257;DHT22;55069;51.568;4.656;2023-11-21T06:01:36;8.66;99.99
68257;DHT22;55069;51.568;4.656;2023-11-21T06:04:04;8.69;99.99
68257;DHT22;55069;51.568;4.656;2023-11-21T06:06:30;8.74;99.99
68257;DHT22;55069;51.568;4.656;2023-11-21T06:08:56;8.79;99.99
68257;DHT22;55069;51.568;4.656;2023-11-21T06:11:22;8.80;99.99
68257;DHT22;55069;51.568;4.656;2023-11-21T06:13:48;8.79;99.99
68257;DHT22;55069;51.568;4.656;2023-11-21T06:16:13;8.84;99.99
68257;DHT22;55069;51.568;4.656;2023-11-21T06:18:41;8.85;99.99
68257;DHT22;55069;51.568;4.656;2023-11-21T06:21:09;8.84;99.99
68257;DHT22;55069;51.568;4.656;2023-11-21T06:23:35;8.85;99.99
68257;DHT22;55069;51.568;4.656;2023-11-21T06:26:00;8.94;99.99
68257;DHT22;55069;51.568;4.656;2023-11-21T06:28:26;8.98;99.99
68257;DHT22;55069;51.568;4.656;2023-11-21T06:30:51;9.01;99.99
68257;DHT22;55069;51.568;4.656;2023-11-21T06:33:18;9.07;99.99
68257;DHT22;55069;51.568;4.656;2023-11-21T06:35:44;9.05;99.99
68257;DHT22;55069;51.568;4.656;2023-11-21T06:38:10;9.07;99.99
68257;DHT22;55069;51.568;4.656;2023-11-21T06:40:35;9.07;99.99
68257;DHT22;55069;51.568;4.656;2023-11-21T06:43:01;9.08;99.99
68257;DHT22;55069;51.568;4.656;2023-11-21T06:45:27;9.11;99.99
68257;DHT22;55069;51.568;4.656;2023-11-21T06:47:53;9.15;99.99
68257;DHT22;55069;51.568;4.656;2023-11-21T06:50:18;9.19;99.99
68257;DHT22;55069;51.568;4.656;2023-11-21T06:52:44;9.22;99.99
68257;DHT22;55069;51.568;4.656;2023-11-21T06:55:09;9.31;99.99
68257;DHT22;55069;51.568;4.656;2023-11-21T06:57:36;9.25;99.99
68257;DHT22;55069;51.568;4.656;2023-11-21T07:00:02;9.25;99.99
68257;DHT22;55069;51.568;4.656;2023-11-21T07:02:28;9.21;99.99
68257;DHT22;55069;51.568;4.656;2023-11-21T07:04:54;9.21;99.99
68257;DHT22;55069;51.568;4.656;2023-11-21T07:07:19;9.22;99.99
68257;DHT22;55069;51.568;4.656;2023-11-21T07:09:45;9.21;99.99
68257;DHT22;55069;51.568;4.656;2023-11-21T07:12:10;9.24;99.99
68257;DHT22;55069;51.568;4.656;2023-11-21T07:14:36;9.28;99.99
68257;DHT22;55069;51.568;4.656;2023-11-21T07:17:04;9.25;99.99
68257;DHT22;55069;51.568;4.656;2023-11-21T07:19:30;9.25;99.99
68257;DHT22;55069;51.568;4.656;2023-11-21T07:21:56;9.29;99.99
68257;DHT22;55069;51.568;4.656;2023-11-21T07:24:21;9.27;99.99
68257;DHT22;55069;51.568;4.656;2023-11-21T07:26:48;9.31;99.99
68257;DHT22;55069;51.568;4.656;2023-11-21T07:29:14;9.32;99.99
68257;DHT22;55069;51.568;4.656;2023-11-21T07:31:39;9.25;99.99
68257;DHT22;55069;51.568;4.656;2023-11-21T07:34:06;9.18;99.99
68257;DHT22;55069;51.568;4.656;2023-11-21T07:36:33;9.21;99.99
68257;DHT22;55069;51.568;4.656;2023-11-21T07:38:58;9.21;99.99
68257;DHT22;55069;51.568;4.656;2023-11-21T07:41:24;9.18;99.99
68257;DHT22;55069;51.568;4.656;2023-11-21T07:43:49;9.18;99.99
68257;DHT22;55069;51.568;4.656;2023-11-21T07:46:15;9.17;99.99
68257;DHT22;55069;51.568;4.656;2023-11-21T07:48:42;9.17;99.99
68257;DHT22;55069;51.568;4.656;2023-11-21T07:51:08;9.12;99.99
68257;DHT22;55069;51.568;4.656;2023-11-21T07:53:35;9.12;99.99
68257;DHT22;55069;51.568;4.656;2023-11-21T07:56:05;9.14;99.99
68257;DHT22;55069;51.568;4.656;2023-11-21T07:58:31;9.11;99.99
68257;DHT22;55069;51.568;4.656;2023-11-21T08:00:59;9.10;99.99
68257;DHT22;55069;51.568;4.656;2023-11-21T08:03:25;9.12;99.99
68257;DHT22;55069;51.568;4.656;2023-11-21T08:05:52;9.15;99.99
68257;DHT22;55069;51.568;4.656;2023-11-21T08:08:18;9.11;99.99
68257;DHT22;55069;51.568;4.656;2023-11-21T08:10:44;9.15;99.99
68257;DHT22;55069;51.568;4.656;2023-11-21T08:13:14;9.15;99.99
68257;DHT22;55069;51.568;4.656;2023-11-21T08:15:41;9.12;99.99
68257;DHT22;55069;51.568;4.656;2023-11-21T08:18:11;9.12;99.99
68257;DHT22;55069;51.568;4.656;2023-11-21T08:20:38;9.12;99.99
68257;DHT22;55069;51.568;4.656;2023-11-21T08:23:05;9.17;99.99
68257;DHT22;55069;51.568;4.656;2023-11-21T08:25:31;9.15;99.99
68257;DHT22;55069;51.568;4.656;2023-11-21T08:27:57;9.18;99.99
68257;DHT22;55069;51.568;4.656;2023-11-21T08:30:23;9.21;99.99
68257;DHT22;55069;51.568;4.656;2023-11-21T08:32:49;9.25;99.99
68257;DHT22;55069;51.568;4.656;2023-11-21T08:35:19;9.32;99.99
68257;DHT22;55069;51.568;4.656;2023-11-21T08:37:44;9.34;99.99
68257;DHT22;55069;51.568;4.656;2023-11-21T08:40:10;9.32;99.99
68257;DHT22;55069;51.568;4.656;2023-11-21T08:42:37;9.40;99.99
68257;DHT22;55069;51.568;4.656;2023-11-21T08:45:04;9.39;99.99
68257;DHT22;55069;51.568;4.656;2023-11-21T08:47:31;9.45;99.99
68257;DHT22;55069;51.568;4.656;2023-11-21T08:49:56;9.50;99.99
68257;DHT22;55069;51.568;4.656;2023-11-21T08:52:24;9.56;99.99
68257;DHT22;55069;51.568;4.656;2023-11-21T08:54:49;9.63;99.99
68257;DHT22;55069;51.568;4.656;2023-11-21T08:57:25;9.70;99.99
68257;DHT22;55069;51.568;4.656;2023-11-21T08:59:50;9.76;99.99
68257;DHT22;55069;51.568;4.656;2023-11-21T09:02:21;9.80;99.99
68257;DHT22;55069;51.568;4.656;2023-11-21T09:04:49;9.93;99.99
68257;DHT22;55069;51.568;4.656;2023-11-21T09:07:14;9.96;99.99
68257;DHT22;55069;51.568;4.656;2023-11-21T09:09:40;10.01;99.99
68257;DHT22;55069;51.568;4.656;2023-11-21T09:12:06;10.05;99.99
68257;DHT22;55069;51.568;4.656;2023-11-21T09:14:31;10.10;99.99
68257;DHT22;55069;51.568;4.656;2023-11-21T09:16:57;10.14;99.99
68257;DHT22;55069;51.568;4.656;2023-11-21T09:19:22;10.11;99.78
68257;DHT22;55069;51.568;4.656;2023-11-21T09:21:48;10.15;99.40
68257;DHT22;55069;51.568;4.656;2023-11-21T09:24:14;10.17;99.51
68257;DHT22;55069;51.568;4.656;2023-11-21T09:26:39;10.25;99.43
68257;DHT22;55069;51.568;4.656;2023-11-21T09:29:05;10.30;99.17
68257;DHT22;55069;51.568;4.656;2023-11-21T09:31:30;10.30;99.06
68257;DHT22;55069;51.568;4.656;2023-11-21T09:33:56;10.34;98.85
68257;DHT22;55069;51.568;4.656;2023-11-21T09:36:22;10.40;98.75
68257;DHT22;55069;51.568;4.656;2023-11-21T09:38:52;10.44;98.70
68257;DHT22;55069;51.568;4.656;2023-11-21T09:41:34;10.46;98.60
68257;DHT22;55069;51.568;4.656;2023-11-21T09:44:04;10.49;98.51
68257;DHT22;55069;51.568;4.656;2023-11-21T09:46:33;10.51;98.15
68257;DHT22;55069;51.568;4.656;2023-11-21T09:49:00;10.53;98.29
68257;DHT22;55069;51.568;4.656;2023-11-21T09:51:27;10.56;98.17
68257;DHT22;55069;51.568;4.656;2023-11-21T09:53:57;10.55;97.87
68257;DHT22;55069;51.568;4.656;2023-11-21T09:56:24;10.61;97.70
68257;DHT22;55069;51.568;4.656;2023-11-21T09:58:53;10.63;97.58
68257;DHT22;55069;51.568;4.656;2023-11-21T10:01:20;10.73;97.49
68257;DHT22;55069;51.568;4.656;2023-11-21T10:03:46;10.79;97.46
68257;DHT22;55069;51.568;4.656;2023-11-21T10:06:13;10.77;97.21
68257;DHT22;55069;51.568;4.656;2023-11-21T10:08:40;10.77;97.13
68257;DHT22;55069;51.568;4.656;2023-11-21T10:11:08;10.82;97.43
68257;DHT22;55069;51.568;4.656;2023-11-21T10:13:37;10.80;97.45
68257;DHT22;55069;51.568;4.656;2023-11-21T10:16:04;10.80;97.16
68257;DHT22;55069;51.568;4.656;2023-11-21T10:18:32;10.77;97.26
68257;DHT22;55069;51.568;4.656;2023-11-21T10:20:59;10.71;97.68
68257;DHT22;55069;51.568;4.656;2023-11-21T10:23:25;10.75;97.51
68257;DHT22;55069;51.568;4.656;2023-11-21T10:25:51;10.79;97.46
68257;DHT22;55069;51.568;4.656;2023-11-21T10:28:17;10.71;97.68
68257;DHT22;55069;51.568;4.656;2023-11-21T10:30:43;10.66;97.66
68257;DHT22;55069;51.568;4.656;2023-11-21T10:33:09;10.68;97.91
68257;DHT22;55069;51.568;4.656;2023-11-21T10:35:45;10.63;97.90
68257;DHT22;55069;51.568;4.656;2023-11-21T10:38:21;10.71;98.27
68257;DHT22;55069;51.568;4.656;2023-11-21T10:40:48;10.71;97.89
68257;DHT22;55069;51.568;4.656;2023-11-21T10:43:15;10.71;98.01
68257;DHT22;55069;51.568;4.656;2023-11-21T10:45:41;10.79;97.98
68257;DHT22;55069;51.568;4.656;2023-11-21T10:48:13;10.82;97.81
68257;DHT22;55069;51.568;4.656;2023-11-21T10:50:43;10.88;97.63
68257;DHT22;55069;51.568;4.656;2023-11-21T10:53:09;10.89;97.26
68257;DHT22;55069;51.568;4.656;2023-11-21T10:55:35;10.92;97.20
68257;DHT22;55069;51.568;4.656;2023-11-21T10:58:02;10.93;96.96
68257;DHT22;55069;51.568;4.656;2023-11-21T11:00:30;10.96;97.09
68257;DHT22;55069;51.568;4.656;2023-11-21T11:02:56;10.95;96.63
68257;DHT22;55069;51.568;4.656;2023-11-21T11:05:23;10.99;96.43
68257;DHT22;55069;51.568;4.656;2023-11-21T11:08:04;10.96;96.67
68257;DHT22;55069;51.568;4.656;2023-11-21T11:10:31;10.99;96.73
68257;DHT22;55069;51.568;4.656;2023-11-21T11:12:57;10.93;96.82
68257;DHT22;55069;51.568;4.656;2023-11-21T11:15:24;11.00;97.04
68257;DHT22;55069;51.568;4.656;2023-11-21T11:17:50;10.99;96.73
68257;DHT22;55069;51.568;4.656;2023-11-21T11:20:16;11.03;96.99
68257;DHT22;55069;51.568;4.656;2023-11-21T11:22:56;11.03;96.91
68257;DHT22;55069;51.568;4.656;2023-11-21T11:28:32;10.75;97.95
68257;DHT22;55069;51.568;4.656;2023-11-21T11:33:58;10.72;97.98
68257;DHT22;55069;51.568;4.656;2023-11-21T11:36:28;10.77;97.77
68257;DHT22;55069;51.568;4.656;2023-11-21T11:38:54;10.77;97.40
68257;DHT22;55069;51.568;4.656;2023-11-21T11:41:31;10.95;97.34
68257;DHT22;55069;51.568;4.656;2023-11-21T11:44:02;10.96;97.12
68257;DHT22;55069;51.568;4.656;2023-11-21T11:46:44;10.97;96.79
68257;DHT22;55069;51.568;4.656;2023-11-21T11:49:23;10.90;96.67
68257;DHT22;55069;51.568;4.656;2023-11-21T11:54:55;10.89;96.75
68257;DHT22;55069;51.568;4.656;2023-11-21T11:57:24;10.79;96.10
68257;DHT22;55069;51.568;4.656;2023-11-21T12:00:22;10.86;96.02
68257;DHT22;55069;51.568;4.656;2023-11-21T12:03:03;10.77;95.64
68257;DHT22;55069;51.568;4.656;2023-11-21T12:05:31;10.75;95.91
68257;DHT22;55069;51.568;4.656;2023-11-21T12:08:00;10.65;96.05
68257;DHT22;55069;51.568;4.656;2023-11-21T12:10:28;10.69;96.33
68257;DHT22;55069;51.568;4.656;2023-11-21T12:12:56;10.66;96.71
68257;DHT22;55069;51.568;4.656;2023-11-21T12:15:22;10.63;96.34
68257;DHT22;55069;51.568;4.656;2023-11-21T12:17:49;10.58;96.60
68257;DHT22;55069;51.568;4.656;2023-11-21T12:20:20;10.62;96.87
68257;DHT22;55069;51.568;4.656;2023-11-21T12:22:50;10.59;97.06
68257;DHT22;55069;51.568;4.656;2023-11-21T12:25:17;10.61;96.67
68257;DHT22;55069;51.568;4.656;2023-11-21T12:27:51;10.58;96.91
68257;DHT22;55069;51.568;4.656;2023-11-21T12:30:22;10.58;96.84
68257;DHT22;55069;51.568;4.656;2023-11-21T12:32:52;10.58;96.52
68257;DHT22;55069;51.568;4.656;2023-11-21T12:35:19;10.56;96.18
68257;DHT22;55069;51.568;4.656;2023-11-21T12:37:45;10.58;96.12
68257;DHT22;55069;51.568;4.656;2023-11-21T12:40:12;10.52;96.30
68257;DHT22;55069;51.568;4.656;2023-11-21T12:42:47;10.56;96.05
68257;DHT22;55069;51.568;4.656;2023-11-21T12:47:49;10.61;96.05
68257;DHT22;55069;51.568;4.656;2023-11-21T12:50:22;10.63;96.39
68257;DHT22;55069;51.568;4.656;2023-11-21T12:52:57;10.59;96.06
68257;DHT22;55069;51.568;4.656;2023-11-21T12:55:24;10.63;96.12
68257;DHT22;55069;51.568;4.656;2023-11-21T12:57:55;10.61;96.11
68257;DHT22;55069;51.568;4.656;2023-11-21T13:00:29;10.62;95.60
68257;DHT22;55069;51.568;4.656;2023-11-21T13:02:58;10.73;96.17
68257;DHT22;55069;51.568;4.656;2023-11-21T13:05:30;10.76;95.63
68257;DHT22;55069;51.568;4.656;2023-11-21T13:08:02;10.80;95.51
68257;DHT22;55069;51.568;4.656;2023-11-21T13:10:34;10.76;95.43
68257;DHT22;55069;51.568;4.656;2023-11-21T13:13:03;10.77;95.50
68257;DHT22;55069;51.568;4.656;2023-11-21T13:15:31;10.75;95.02
68257;DHT22;55069;51.568;4.656;2023-11-21T13:17:58;10.59;95.68
68257;DHT22;55069;51.568;4.656;2023-11-21T13:20:25;10.55;96.10
68257;DHT22;55069;51.568;4.656;2023-11-21T13:22:52;10.46;96.21
68257;DHT22;55069;51.568;4.656;2023-11-21T13:25:24;10.48;96.45
68257;DHT22;55069;51.568;4.656;2023-11-21T13:27:56;10.45;96.54
68257;DHT22;55069;51.568;4.656;2023-11-21T13:30:23;10.42;97.15
68257;DHT22;55069;51.568;4.656;2023-11-21T13:32:53;10.44;97.13
68257;DHT22;55069;51.568;4.656;2023-11-21T13:35:23;10.37;97.14
68257;DHT22;55069;51.568;4.656;2023-11-21T13:37:57;10.38;97.26
68257;DHT22;55069;51.568;4.656;2023-11-21T13:40:26;10.37;96.60
68257;DHT22;55069;51.568;4.656;2023-11-21T13:42:55;10.32;96.83
68257;DHT22;55069;51.568;4.656;2023-11-21T13:45:25;10.34;96.60
68257;DHT22;55069;51.568;4.656;2023-11-21T13:47:52;10.40;96.84
68257;DHT22;55069;51.568;4.656;2023-11-21T13:50:20;10.42;96.15
68257;DHT22;55069;51.568;4.656;2023-11-21T13:52:51;10.42;95.95
68257;DHT22;55069;51.568;4.656;2023-11-21T13:55:19;10.45;95.75
68257;DHT22;55069;51.568;4.656;2023-11-21T13:57:44;10.38;95.35
68257;DHT22;55069;51.568;4.656;2023-11-21T14:00:12;10.42;95.15
68257;DHT22;55069;51.568;4.656;2023-11-21T14:02:58;10.42;95.90
68257;DHT22;55069;51.568;4.656;2023-11-21T14:05:29;10.44;95.26
68257;DHT22;55069;51.568;4.656;2023-11-21T14:07:58;10.45;95.82
68257;DHT22;55069;51.568;4.656;2023-11-21T14:10:32;10.44;95.64
68257;DHT22;55069;51.568;4.656;2023-11-21T14:13:11;10.42;95.62
68257;DHT22;55069;51.568;4.656;2023-11-21T14:15:39;10.45;95.47
68257;DHT22;55069;51.568;4.656;2023-11-21T14:18:08;10.45;95.71
68257;DHT22;55069;51.568;4.656;2023-11-21T14:20:37;10.45;95.95
68257;DHT22;55069;51.568;4.656;2023-11-21T14:23:05;10.40;96.17
68257;DHT22;55069;51.568;4.656;2023-11-21T14:25:35;10.34;96.56
68257;DHT22;55069;51.568;4.656;2023-11-21T14:28:05;10.28;97.03
68257;DHT22;55069;51.568;4.656;2023-11-21T14:30:34;10.24;97.18
68257;DHT22;55069;51.568;4.656;2023-11-21T14:33:04;10.24;97.24
68257;DHT22;55069;51.568;4.656;2023-11-21T14:35:29;10.18;97.14
68257;DHT22;55069;51.568;4.656;2023-11-21T14:37:59;10.17;97.16
68257;DHT22;55069;51.568;4.656;2023-11-21T14:40:26;10.21;97.28
68257;DHT22;55069;51.568;4.656;2023-11-21T14:42:53;10.17;97.16
68257;DHT22;55069;51.568;4.656;2023-11-21T14:45:19;10.20;97.21
68257;DHT22;55069;51.568;4.656;2023-11-21T14:47:46;10.21;97.16
68257;DHT22;55069;51.568;4.656;2023-11-21T14:50:21;10.17;97.06
68257;DHT22;55069;51.568;4.656;2023-11-21T14:53:06;10.21;96.99
68257;DHT22;55069;51.568;4.656;2023-11-21T14:55:35;10.18;96.87
68257;DHT22;55069;51.568;4.656;2023-11-21T14:58:22;10.14;97.17
68257;DHT22;55069;51.568;4.656;2023-11-21T15:00:57;10.17;96.94
68257;DHT22;55069;51.568;4.656;2023-11-21T15:03:24;10.17;96.71
68257;DHT22;55069;51.568;4.656;2023-11-21T15:06:09;10.18;96.79
68257;DHT22;55069;51.568;4.656;2023-11-21T15:08:55;10.15;96.79
68257;DHT22;55069;51.568;4.656;2023-11-21T15:11:44;10.10;96.12
68257;DHT22;55069;51.568;4.656;2023-11-21T15:14:09;10.13;95.94
68257;DHT22;55069;51.568;4.656;2023-11-21T15:16:38;10.11;95.99
68257;DHT22;55069;51.568;4.656;2023-11-21T15:19:11;10.15;95.92
68257;DHT22;55069;51.568;4.656;2023-11-21T15:21:37;10.18;96.00
68257;DHT22;55069;51.568;4.656;2023-11-21T15:24:03;10.17;96.10
68257;DHT22;55069;51.568;4.656;2023-11-21T15:26:29;10.20;96.17
68257;DHT22;55069;51.568;4.656;2023-11-21T15:28:55;10.13;96.24
68257;DHT22;55069;51.568;4.656;2023-11-21T15:31:21;10.14;96.34
68257;DHT22;55069;51.568;4.656;2023-11-21T15:33:51;10.07;96.44
68257;DHT22;55069;51.568;4.656;2023-11-21T15:36:18;10.05;96.40
68257;DHT22;55069;51.568;4.656;2023-11-21T15:38:44;9.98;97.04
68257;DHT22;55069;51.568;4.656;2023-11-21T15:41:10;9.96;97.09
68257;DHT22;55069;51.568;4.656;2023-11-21T15:43:37;9.98;96.74
68257;DHT22;55069;51.568;4.656;2023-11-21T15:46:02;10.01;96.94
68257;DHT22;55069;51.568;4.656;2023-11-21T15:48:36;9.97;97.27
68257;DHT22;55069;51.568;4.656;2023-11-21T15:51:04;9.94;97.16
68257;DHT22;55069;51.568;4.656;2023-11-21T15:53:30;9.89;97.20